createdAt,value
2023-02-03T00:02:23.945Z,97691.56
2023-02-03T00:04:56.766Z,97696.91
2023-02-03T00:07:30.044Z,97699.84
2023-02-03T00:10:04.812Z,97688.66
2023-02-03T00:12:37.724Z,97686.25
2023-02-03T00:15:11.253Z,97671.66
2023-02-03T00:17:44.134Z,97686.84
2023-02-03T00:20:17.082Z,97678.03
2023-02-03T00:22:50.083Z,97672.19
2023-02-03T00:25:24.247Z,97671.41
2023-02-03T00:27:57.072Z,97673.53
2023-02-03T00:30:30.217Z,97662.34
2023-02-03T00:33:03.353Z,97672.78
2023-02-03T00:35:39.427Z,97678.66
2023-02-03T00:38:12.262Z,97683.25
2023-02-03T00:40:53.659Z,97689.38
2023-02-03T00:43:26.553Z,97706.75
2023-02-03T00:45:59.483Z,97698.53
2023-02-03T00:48:32.385Z,97703.66
2023-02-03T00:51:05.392Z,97706.88
2023-02-03T00:53:38.200Z,97708.53
2023-02-03T00:56:14.056Z,97714.16
2023-02-03T00:58:46.871Z,97717.88
2023-02-03T01:01:19.737Z,97721.66
2023-02-03T01:03:52.609Z,97713.97
2023-02-03T01:06:25.522Z,97718.78
2023-02-03T01:08:58.485Z,97715.31
2023-02-03T01:11:33.712Z,97723.31
2023-02-03T01:14:06.585Z,97730.22
2023-02-03T01:16:39.932Z,97742.22
2023-02-03T01:19:14.784Z,97745.41
2023-02-03T01:21:47.601Z,97745.41
2023-02-03T01:24:20.393Z,97753.13
2023-02-03T01:26:54.769Z,97754.16
2023-02-03T01:29:27.733Z,97752.31
2023-02-03T01:32:00.725Z,97748.03
2023-02-03T01:34:33.584Z,97755.72
2023-02-03T01:37:06.401Z,97767.97
2023-02-03T01:39:39.225Z,97766.06
2023-02-03T01:42:15.554Z,97762.63
2023-02-03T01:44:51.352Z,97761.25
2023-02-03T01:47:29.215Z,97756.47
2023-02-03T01:50:10.776Z,97753.50
2023-02-03T01:52:46.686Z,97751.59
2023-02-03T01:55:23.498Z,97739.34
2023-02-03T01:58:05.267Z,97740.91
2023-02-03T02:00:38.250Z,97734.25
2023-02-03T02:03:11.831Z,97735.31
2023-02-03T02:05:49.261Z,97747.78
2023-02-03T02:08:23.485Z,97753.88
2023-02-03T02:10:56.831Z,97758.41
2023-02-03T02:13:34.981Z,97763.69
2023-02-03T02:16:13.073Z,97752.22
2023-02-03T02:19:02.680Z,97754.84
2023-02-03T02:21:46.712Z,97749.50
2023-02-03T02:24:51.289Z,97753.97
2023-02-03T02:27:45.593Z,97757.97
2023-02-03T02:30:37.900Z,97750.19
2023-02-03T02:33:28.280Z,97743.53
2023-02-03T02:36:12.732Z,97733.41
2023-02-03T02:38:54.947Z,97723.53
2023-02-03T02:41:31.288Z,97706.47
2023-02-03T02:44:10.968Z,97683.28
2023-02-03T02:46:48.272Z,97669.44
2023-02-03T02:49:29.219Z,97677.97
2023-02-03T02:52:06.179Z,97682.50
2023-02-03T02:54:43.453Z,97687.03
2023-02-03T02:57:19.567Z,97691.56
2023-02-03T02:59:52.396Z,97701.44
2023-02-03T03:02:33.217Z,97702.22
2023-02-03T03:05:11.496Z,97701.16
2023-02-03T03:07:49.594Z,97696.09
2023-02-03T03:10:27.445Z,97685.44
2023-02-03T03:13:04.820Z,97697.69
2023-02-03T03:15:39.906Z,97707.28
2023-02-03T03:18:17.351Z,97703.50
2023-02-03T03:20:54.467Z,97694.44
2023-02-03T03:23:33.559Z,97688.06
2023-02-03T03:26:15.610Z,97704.56
2023-02-03T03:28:50.907Z,97694.97
2023-02-03T03:31:23.896Z,97688.56
2023-02-03T03:33:56.768Z,97685.91
2023-02-03T03:36:37.318Z,97672.03
2023-02-03T03:39:17.048Z,97671.72
2023-02-03T03:41:59.021Z,97660.31
2023-02-03T03:44:39.298Z,97665.06
2023-02-03T03:47:20.002Z,97682.13
2023-02-03T03:49:54.940Z,97690.13
2023-02-03T03:52:34.802Z,97692.78
2023-02-03T03:55:11.624Z,97703.97
2023-02-03T03:57:53.220Z,97686.38
2023-02-03T04:00:29.902Z,97678.38
2023-02-03T04:03:14.592Z,97677.84
2023-02-03T04:05:47.479Z,97662.38
2023-02-03T04:08:21.956Z,97653.59
2023-02-03T04:10:54.802Z,97652.00
2023-02-03T04:13:27.620Z,97653.38
2023-02-03T04:16:00.503Z,97664.31
2023-02-03T04:18:33.382Z,97648.59
2023-02-03T04:21:06.550Z,97629.44
2023-02-03T04:23:40.731Z,97650.47
2023-02-03T04:26:13.598Z,97643.81
2023-02-03T04:28:46.432Z,97645.41
2023-02-03T04:31:19.370Z,97656.06
2023-02-03T04:33:52.269Z,97650.75
2023-02-03T04:36:25.863Z,97644.91
2023-02-03T04:39:00.088Z,97638.50
2023-02-03T04:41:32.952Z,97637.22
2023-02-03T04:44:06.081Z,97639.88
2023-02-03T04:46:38.908Z,97636.97
2023-02-03T04:49:12.164Z,97648.97
2023-02-03T04:51:45.514Z,97664.44
2023-02-03T04:54:19.735Z,97664.72
2023-02-03T04:56:52.710Z,97686.84
2023-02-03T04:59:25.536Z,97688.22
2023-02-03T05:01:58.617Z,97692.75
2023-02-03T05:04:31.981Z,97703.69
2023-02-03T05:07:04.813Z,97694.31
2023-02-03T05:09:39.058Z,97694.06
2023-02-03T05:12:11.989Z,97702.84
2023-02-03T05:14:44.923Z,97711.09
2023-02-03T05:17:17.821Z,97716.13
2023-02-03T05:19:50.596Z,97718.53
2023-02-03T05:22:23.528Z,97721.69
2023-02-03T05:24:57.737Z,97722.75
2023-02-03T05:27:30.906Z,97714.47
2023-02-03T05:30:03.702Z,97709.38
2023-02-03T05:32:36.687Z,97709.88
2023-02-03T05:35:09.766Z,97702.94
2023-02-03T05:37:45.002Z,97708.50
2023-02-03T05:40:37.664Z,97715.94
2023-02-03T05:43:10.594Z,97722.06
2023-02-03T05:45:43.437Z,97729.50
2023-02-03T05:48:16.356Z,97734.81
2023-02-03T05:50:49.198Z,97751.34
2023-02-03T05:53:22.376Z,97755.88
2023-02-03T05:55:56.565Z,97767.84
2023-02-03T05:58:29.433Z,97761.72
2023-02-03T06:01:02.280Z,97743.59
2023-02-03T06:03:35.146Z,97715.88
2023-02-03T06:06:08.158Z,97701.16
2023-02-03T06:08:41.021Z,97701.16
2023-02-03T06:11:15.196Z,97692.88
2023-02-03T06:13:48.669Z,97689.41
2023-02-03T06:16:22.149Z,97704.34
2023-02-03T06:18:55.802Z,97685.69
2023-02-03T06:21:29.225Z,97681.44
2023-02-03T06:24:02.369Z,97686.75
2023-02-03T06:26:36.533Z,97693.69
2023-02-03T06:29:09.443Z,97698.50
2023-02-03T06:31:42.396Z,97701.94
2023-02-03T06:34:15.399Z,97705.41
2023-02-03T06:36:48.502Z,97704.34
2023-02-03T06:39:21.383Z,97697.41
2023-02-03T06:41:56.281Z,97704.06
2023-02-03T06:44:29.200Z,97726.19
2023-02-03T06:47:02.925Z,97737.13
2023-02-03T06:49:35.772Z,97744.84
2023-02-03T06:52:08.658Z,97748.84
2023-02-03T06:54:41.608Z,97756.53
2023-02-03T06:57:15.812Z,97758.13
2023-02-03T06:59:48.743Z,97746.66
2023-02-03T07:02:21.832Z,97742.66
2023-02-03T07:04:54.735Z,97770.13
2023-02-03T07:07:27.543Z,97757.31
2023-02-03T07:10:00.414Z,97773.25
2023-02-03T07:12:36.450Z,97780.44
2023-02-03T07:15:10.577Z,97786.31
2023-02-03T07:17:43.370Z,97773.50
2023-02-03T07:20:16.455Z,97766.50
2023-02-03T07:23:00.703Z,97778.22
2023-02-03T07:25:33.529Z,97779.81
2023-02-03T07:28:07.920Z,97789.63
2023-02-03T07:30:40.888Z,97779.75
2023-02-03T07:33:13.691Z,97777.34
2023-02-03T07:35:53.165Z,97767.69
2023-02-03T07:38:27.289Z,97766.34
2023-02-03T07:41:00.194Z,97755.09
2023-02-03T07:43:34.439Z,97738.00
2023-02-03T07:46:07.364Z,97744.66
2023-02-03T07:48:40.190Z,97736.09
2023-02-03T07:51:13.075Z,97740.03
2023-02-03T07:53:46.256Z,97725.13
2023-02-03T07:56:19.125Z,97728.28
2023-02-03T07:58:54.757Z,97754.41
2023-02-03T08:01:28.238Z,97762.44
2023-02-03T08:04:02.111Z,97752.28
2023-02-03T08:06:35.087Z,97743.69
2023-02-03T08:09:07.954Z,97741.53
2023-02-03T08:11:40.844Z,97726.84
2023-02-03T08:14:15.233Z,97706.03
2023-02-03T08:16:48.122Z,97711.84
2023-02-03T08:19:20.948Z,97749.19
2023-02-03T08:21:53.856Z,97751.56
2023-02-03T08:24:26.691Z,97750.41
2023-02-03T08:27:00.954Z,97759.47
2023-02-03T08:29:35.271Z,97765.81
2023-02-03T08:32:10.756Z,97757.72
2023-02-03T08:34:43.855Z,97752.09
2023-02-03T08:37:18.533Z,97749.09
2023-02-03T08:39:52.262Z,97745.06
2023-02-03T08:42:25.217Z,97730.06
2023-02-03T08:44:59.702Z,97726.31
2023-02-03T08:47:32.777Z,97712.63
2023-02-03T08:50:07.254Z,97720.38
2023-02-03T08:52:40.521Z,97722.25
2023-02-03T08:55:13.371Z,97728.09
2023-02-03T08:57:46.288Z,97733.44
2023-02-03T09:00:21.935Z,97752.13
2023-02-03T09:02:54.839Z,97758.03
2023-02-03T09:05:27.791Z,97742.91
2023-02-03T09:08:00.808Z,97742.19
2023-02-03T09:10:33.703Z,97733.69
2023-02-03T09:13:06.580Z,97743.09
2023-02-03T09:15:41.011Z,97735.13
2023-02-03T09:18:13.957Z,97742.94
2023-02-03T09:20:46.794Z,97744.28
2023-02-03T09:23:19.833Z,97747.50
2023-02-03T09:25:53.207Z,97749.69
2023-02-03T09:28:26.139Z,97739.31
2023-02-03T09:31:02.540Z,97731.00
2023-02-03T09:33:35.989Z,97725.94
2023-02-03T09:36:09.709Z,97713.88
2023-02-03T09:38:42.620Z,97695.72
2023-02-03T09:41:29.109Z,97712.50
2023-02-03T09:44:06.301Z,97711.09
2023-02-03T09:46:43.413Z,97726.00
2023-02-03T09:49:23.498Z,97729.38
2023-02-03T09:52:00.703Z,97736.25
2023-02-03T09:54:43.506Z,97740.75
2023-02-03T09:57:22.363Z,97737.72
2023-02-03T09:59:59.371Z,97726.94
2023-02-03T10:02:51.149Z,97717.28
2023-02-03T10:05:32.338Z,97728.69
2023-02-03T10:08:15.691Z,97736.03
2023-02-03T10:11:10.608Z,97732.25
2023-02-03T10:13:55.771Z,97739.59
2023-02-03T10:16:49.250Z,97732.28
2023-02-03T10:19:28.395Z,97744.00
2023-02-03T10:22:03.203Z,97752.44
2023-02-03T10:24:42.018Z,97759.59
2023-02-03T10:27:20.072Z,97753.09
2023-02-03T10:29:58.830Z,97740.13
2023-02-03T10:32:32.056Z,97731.22
2023-02-03T10:35:12.240Z,97731.34
2023-02-03T10:37:49.160Z,97728.78
2023-02-03T10:40:24.719Z,97714.75
2023-02-03T10:43:15.359Z,97707.94
2023-02-03T10:45:48.199Z,97712.81
2023-02-03T10:48:21.194Z,97712.13
2023-02-03T10:50:56.767Z,97707.69
2023-02-03T10:53:35.689Z,97713.53
2023-02-03T10:56:12.382Z,97725.03
2023-02-03T10:58:51.397Z,97721.75
2023-02-03T11:01:27.059Z,97709.00
2023-02-03T11:04:03.299Z,97718.19
2023-02-03T11:06:37.549Z,97693.41
2023-02-03T11:09:25.476Z,97687.88
2023-02-03T11:12:09.671Z,97670.91
2023-02-03T11:14:45.833Z,97678.41
2023-02-03T11:17:20.599Z,97672.00
2023-02-03T11:19:55.754Z,97661.00
2023-02-03T11:22:33.071Z,97653.78
2023-02-03T11:25:18.235Z,97665.47
2023-02-03T11:27:51.322Z,97685.69
2023-02-03T11:30:28.356Z,97678.91
2023-02-03T11:33:02.576Z,97678.13
2023-02-03T11:35:38.088Z,97665.00
2023-02-03T11:38:30.938Z,97684.13
2023-02-03T11:41:04.861Z,97674.31
2023-02-03T11:43:37.814Z,97666.09
2023-02-03T11:46:10.895Z,97684.41
2023-02-03T11:48:58.322Z,97682.31
2023-02-03T11:51:39.703Z,97681.38
2023-02-03T11:54:29.199Z,97689.88
2023-02-03T11:57:17.228Z,97679.03
2023-02-03T12:00:13.714Z,97676.69
2023-02-03T12:03:19.659Z,97669.16
2023-02-03T12:06:14.815Z,97653.72
2023-02-03T12:08:59.942Z,97648.84
2023-02-03T12:11:50.218Z,97663.09
2023-02-03T12:14:38.031Z,97670.19
2023-02-03T12:17:33.971Z,97682.44
2023-02-03T12:20:21.019Z,97689.34
2023-02-03T12:23:04.107Z,97681.31
2023-02-03T12:25:50.194Z,97677.50
2023-02-03T12:28:45.285Z,97660.13
2023-02-03T12:31:27.680Z,97649.22
2023-02-03T12:34:11.076Z,97633.38
2023-02-03T12:36:49.904Z,97635.00
2023-02-03T12:39:27.712Z,97619.47
2023-02-03T12:42:05.707Z,97606.81
2023-02-03T12:44:48.927Z,97587.56
2023-02-03T12:47:30.410Z,97590.56
2023-02-03T12:50:11.632Z,97603.50
2023-02-03T12:52:49.006Z,97598.44
2023-02-03T12:55:28.483Z,97599.53
2023-02-03T12:58:06.164Z,97603.31
2023-02-03T13:00:47.372Z,97588.66
2023-02-03T13:03:28.253Z,97583.59
2023-02-03T13:06:09.363Z,97574.44
2023-02-03T13:08:47.843Z,97584.69
2023-02-03T13:11:27.227Z,97599.53
2023-02-03T13:14:05.075Z,97599.38
2023-02-03T13:16:45.216Z,97593.03
2023-02-03T13:19:24.076Z,97577.88
2023-02-03T13:21:56.981Z,97577.56
2023-02-03T13:24:31.572Z,97572.81
2023-02-03T13:27:19.824Z,97569.16
2023-02-03T13:30:11.873Z,97550.22
2023-02-03T13:32:57.410Z,97535.81
2023-02-03T13:35:45.044Z,97537.41
2023-02-03T13:38:52.482Z,97546.41
2023-02-03T13:41:33.398Z,97557.44
2023-02-03T13:44:08.929Z,97560.59
2023-02-03T13:46:42.716Z,97547.47
2023-02-03T13:49:25.338Z,97544.50
2023-02-03T13:51:58.876Z,97538.94
2023-02-03T13:54:35.917Z,97542.41
2023-02-03T13:57:23.047Z,97538.31
2023-02-03T13:59:56.038Z,97539.44
2023-02-03T14:02:55.970Z,97558.84
2023-02-03T14:05:50.835Z,97572.75
2023-02-03T14:08:53.970Z,97585.56
2023-02-03T14:11:45.529Z,97596.31
2023-02-03T14:14:58.165Z,97585.56
2023-02-03T14:18:18.813Z,97575.13
2023-02-03T14:21:15.303Z,97585.38
2023-02-03T14:24:00.244Z,97594.84
2023-02-03T14:26:43.886Z,97611.09
2023-02-03T14:29:27.422Z,97600.97
2023-02-03T14:32:02.825Z,97598.44
2023-02-03T14:34:39.371Z,97597.16
2023-02-03T14:37:25.640Z,97602.03
2023-02-03T14:40:18.650Z,97609.44
2023-02-03T14:43:16.670Z,97609.25
2023-02-03T14:46:27.449Z,97617.44
2023-02-03T14:49:19.517Z,97619.66
2023-02-03T14:51:57.654Z,97625.16
2023-02-03T14:54:49.529Z,97626.25
2023-02-03T14:57:36.931Z,97617.22
2023-02-03T15:00:28.216Z,97619.25
2023-02-03T15:03:30.274Z,97623.63
2023-02-03T15:06:05.695Z,97622.81
2023-02-03T15:08:44.786Z,97627.16
2023-02-03T15:11:24.932Z,97618.94
2023-02-03T15:14:19.295Z,97612.91
2023-02-03T15:16:56.990Z,97611.16
2023-02-03T15:19:34.067Z,97608.28
2023-02-03T15:22:20.500Z,97604.94
2023-02-03T15:24:55.139Z,97609.31
2023-02-03T15:27:29.853Z,97611.63
2023-02-03T15:30:19.876Z,97625.94
2023-02-03T15:33:03.211Z,97629.03
2023-02-03T15:35:40.447Z,97632.44
2023-02-03T15:38:16.105Z,97611.13
2023-02-03T15:40:53.379Z,97599.25
2023-02-03T15:43:32.859Z,97600.44
2023-02-03T15:46:15.057Z,97603.84
2023-02-03T15:48:52.103Z,97614.75
2023-02-03T15:51:33.155Z,97615.47
2023-02-03T15:54:12.039Z,97626.41
2023-02-03T15:56:55.185Z,97646.59
2023-02-03T15:59:33.210Z,97672.97
2023-02-03T16:02:18.598Z,97667.53
2023-02-03T16:04:51.741Z,97668.78
2023-02-03T16:07:27.359Z,97666.19
2023-02-03T16:10:01.242Z,97669.75
2023-02-03T16:12:35.001Z,97674.91
2023-02-03T16:15:22.449Z,97659.75
2023-02-03T16:17:59.482Z,97662.41
2023-02-03T16:20:33.433Z,97664.38
2023-02-03T16:23:18.472Z,97668.41
2023-02-03T16:26:08.947Z,97663.97
2023-02-03T16:28:59.886Z,97664.34
2023-02-03T16:32:03.026Z,97654.03
2023-02-03T16:34:54.766Z,97642.63
2023-02-03T16:37:47.125Z,97645.91
2023-02-03T16:40:40.281Z,97647.34
2023-02-03T16:43:35.468Z,97623.09
2023-02-03T16:46:30.883Z,97615.13
2023-02-03T16:49:21.558Z,97631.56
2023-02-03T16:51:56.184Z,97635.41
2023-02-03T16:54:29.134Z,97635.19
2023-02-03T16:57:01.975Z,97648.53
2023-02-03T16:59:34.927Z,97648.06
2023-02-03T17:02:08.197Z,97644.59
2023-02-03T17:04:41.309Z,97633.91
2023-02-03T17:07:15.601Z,97637.56
2023-02-03T17:09:48.470Z,97640.22
2023-02-03T17:12:21.332Z,97637.78
2023-02-03T17:14:55.555Z,97633.72
2023-02-03T17:17:29.531Z,97631.84
2023-02-03T17:20:02.598Z,97649.19
2023-02-03T17:22:37.281Z,97643.53
2023-02-03T17:25:10.233Z,97641.66
2023-02-03T17:27:43.180Z,97636.84
2023-02-03T17:30:16.823Z,97620.19
2023-02-03T17:32:49.673Z,97607.34
2023-02-03T17:35:22.554Z,97610.53
2023-02-03T17:37:57.374Z,97607.25
2023-02-03T17:54:45.017Z,97647.97
2023-02-03T17:57:18.209Z,97656.22
2023-02-03T17:59:55.272Z,97650.56
2023-02-03T18:02:28.280Z,97656.09
2023-02-03T18:05:01.225Z,97656.63
2023-02-03T18:07:34.205Z,97660.88
2023-02-03T18:10:09.607Z,97662.94
2023-02-03T18:12:43.303Z,97652.25
2023-02-03T18:15:16.641Z,97646.34
2023-02-03T18:17:49.660Z,97649.50
2023-02-03T18:20:22.526Z,97663.69
2023-02-03T18:22:55.540Z,97652.19
2023-02-03T18:25:29.899Z,97654.28
2023-02-03T18:28:02.890Z,97647.34
2023-02-03T18:30:36.523Z,97648.44
2023-02-03T18:33:09.571Z,97644.66
2023-02-03T18:35:42.762Z,97631.28
2023-02-03T18:38:15.726Z,97627.53
2023-02-03T18:40:49.973Z,97629.09
2023-02-03T18:43:23.004Z,97628.63
2023-02-03T18:45:55.975Z,97633.19
2023-02-03T18:48:28.990Z,97628.41
2023-02-03T18:51:03.066Z,97634.56
2023-02-03T18:53:36.461Z,97642.06
2023-02-03T18:56:14.651Z,97631.38
2023-02-03T18:58:47.948Z,97638.88
2023-02-03T19:01:23.383Z,97652.25
2023-02-03T19:03:57.700Z,97661.16
2023-02-03T19:06:32.325Z,97670.78
2023-02-03T19:09:06.572Z,97677.50
2023-02-03T19:11:40.883Z,97669.47
2023-02-03T19:14:16.469Z,97675.72
2023-02-03T19:16:50.475Z,97659.97
2023-02-03T19:19:23.409Z,97661.03
2023-02-03T19:21:56.444Z,97669.88
2023-02-03T19:24:29.320Z,97667.19
2023-02-03T19:27:03.559Z,97681.63
2023-02-03T19:29:38.689Z,97679.25
2023-02-03T19:32:12.948Z,97684.59
2023-02-03T19:34:45.956Z,97679.53
2023-02-03T19:37:18.810Z,97682.22
2023-02-03T19:39:51.702Z,97684.88
2023-02-03T19:42:26.023Z,97684.59
2023-02-03T19:44:58.987Z,97673.41
2023-02-03T19:47:31.993Z,97679.25
2023-02-03T19:50:06.924Z,97681.94
2023-02-03T19:52:39.798Z,97686.75
2023-02-03T19:55:16.161Z,97684.59
2023-02-03T19:57:50.815Z,97674.69
2023-02-03T20:00:24.243Z,97673.09
2023-02-03T20:02:57.089Z,97667.47
2023-02-03T20:05:30.504Z,97664.00
2023-02-03T20:08:03.884Z,97669.63
2023-02-03T20:10:36.884Z,97672.31
2023-02-03T20:13:11.250Z,97683.50
2023-02-03T20:15:47.555Z,97684.59
2023-02-03T20:18:20.498Z,97674.19
2023-02-03T20:20:55.269Z,97667.47
2023-02-03T20:23:28.153Z,97673.63
2023-02-03T20:26:01.029Z,97667.47
2023-02-03T20:28:35.466Z,97673.34
2023-02-03T20:31:08.455Z,97674.13
2023-02-03T20:33:41.475Z,97678.97
2023-02-03T20:36:14.446Z,97676.56
2023-02-03T20:38:47.911Z,97676.28
2023-02-03T20:41:20.854Z,97668.56
2023-02-03T20:43:55.110Z,97670.44
2023-02-03T20:46:28.194Z,97676.56
2023-02-03T20:49:01.186Z,97671.53
2023-02-03T20:51:34.335Z,97684.88
2023-02-03T20:54:15.635Z,97674.69
2023-02-03T20:56:49.090Z,97680.66
2023-02-03T20:59:23.640Z,97688.34
2023-02-03T21:01:56.603Z,97692.63
2023-02-03T21:04:47.171Z,97684.88
2023-02-03T21:07:20.367Z,97673.91
2023-02-03T21:09:53.360Z,97679.75
2023-02-03T21:12:27.159Z,97684.03
2023-02-03T21:15:01.426Z,97679.47
2023-02-03T21:17:37.295Z,97693.63
2023-02-03T21:20:25.021Z,97692.56
2023-02-03T21:22:59.123Z,97694.16
2023-02-03T21:25:34.129Z,97691.94
2023-02-03T21:28:07.189Z,97691.94
2023-02-03T21:30:41.637Z,97687.09
2023-02-03T21:33:30.894Z,97693.25
2023-02-03T21:36:03.837Z,97684.72
2023-02-03T21:38:36.723Z,97690.06
2023-02-03T21:41:15.847Z,97687.91
2023-02-03T21:43:52.529Z,97685.22
2023-02-03T21:46:28.693Z,97687.63
2023-02-03T21:49:03.156Z,97679.09
2023-02-03T21:51:38.143Z,97681.47
2023-02-03T21:54:24.551Z,97688.41
2023-02-03T21:56:58.546Z,97678.00
2023-02-03T21:59:42.335Z,97670.22
2023-02-03T22:02:47.474Z,97685.44
2023-02-03T22:05:21.182Z,97690.00
2023-02-03T22:07:54.790Z,97681.97
2023-02-03T22:10:28.022Z,97685.44
2023-02-03T22:13:01.102Z,97688.59
2023-02-03T22:15:34.015Z,97688.59
2023-02-03T22:18:08.385Z,97690.69
2023-02-03T22:20:41.294Z,97696.84
2023-02-03T22:23:14.250Z,97697.13
2023-02-03T22:25:47.853Z,97700.81
2023-02-03T22:28:20.866Z,97689.03
2023-02-03T22:30:54.112Z,97697.06
2023-02-03T22:33:28.393Z,97703.19
2023-02-03T22:36:01.426Z,97700.81
2023-02-03T22:38:34.610Z,97682.41
2023-02-03T22:41:08.889Z,97697.13
2023-02-03T22:43:42.026Z,97702.47
2023-02-03T22:46:15.002Z,97717.72
2023-02-03T22:48:49.427Z,97719.59
2023-02-03T22:51:22.434Z,97717.53
2023-02-03T22:53:55.199Z,97712.66
2023-02-03T22:56:28.273Z,97712.47
2023-02-03T22:59:01.107Z,97720.78
2023-02-03T23:01:34.678Z,97720.28
2023-02-03T23:04:08.987Z,97725.63
2023-02-03T23:06:42.030Z,97727.78
2023-02-03T23:09:14.906Z,97726.50
2023-02-03T23:11:47.791Z,97724.41
2023-02-03T23:14:20.818Z,97727.66
2023-02-03T23:16:56.716Z,97716.25
2023-02-03T23:19:30.993Z,97716.81
2023-02-03T23:22:04.171Z,97709.19
2023-02-03T23:24:37.237Z,97709.28
2023-02-03T23:27:10.380Z,97706.66
2023-02-03T23:29:43.559Z,97700.88
2023-02-03T23:32:16.555Z,97707.91
2023-02-03T23:35:08.350Z,97703.69
2023-02-03T23:37:41.274Z,97713.94
2023-02-03T23:40:14.559Z,97721.75
2023-02-03T23:42:47.456Z,97714.59
2023-02-03T23:45:20.366Z,97714.69
2023-02-03T23:47:53.539Z,97709.09
2023-02-03T23:50:27.913Z,97716.59
2023-02-03T23:53:01.213Z,97714.00
2023-02-03T23:55:34.080Z,97721.22
2023-02-03T23:58:07.013Z,97725.53
